KBTA

Blair Municipal Airport

Blair, Nebraska, USA
METAR KBTA 211955Z AUTO 02011KT 1/4SM FG OVC003 03/03 A2971 RMK AO2 T00340027
Observed Flight Rules
Jan-21 @ 19:55 UTC (31 minutes ago) Instrument Flight Rules
Wind Visibility Clouds Conditions
20° at 11 knots 1/4 miles
  • Overcast at 300' AGL
  • Fog
Temperatures Readings
Current 3°C / 37°F
Dewpoint 3°C / 37°F
Humidity 100%
Altimeter 29.71" Hg
Pressure 1006 hPa
Elevation 396
METAR KBTA 211955Z AUTO 02011KT 1/4SM FG OVC003 03/03 A2971 RMK AO2 T00340027
Observed Flight Rules
Jan-21 @ 19:55 UTC
(31 minutes ago)
LIFR
Wind Visibility
20° at 11 knots 1/4 miles
Clouds
  • Overcast at 300' AGL
Conditions
  • Fog
Temperature Dewpoint
3°C / 37°F 3°C / 37°F
Humidity Altimeter Pressure
100% 29.71" Hg 1006 hPa